createdAt,value
2022-08-31T00:00:10.321Z,68.87
2022-08-31T00:02:57.171Z,70.51
2022-08-31T00:05:24.102Z,70.61
2022-08-31T00:07:52.723Z,70.29
2022-08-31T00:10:22.275Z,70.42
2022-08-31T00:13:01.150Z,71.86
2022-08-31T00:15:30.330Z,71.56
2022-08-31T00:17:58.138Z,71.16
2022-08-31T00:20:34.360Z,72.52
2022-08-31T00:23:07.065Z,72.45
2022-08-31T00:25:34.945Z,71.59
2022-08-31T00:28:02.602Z,70.96
2022-08-31T00:30:30.126Z,72.09
2022-08-31T00:32:58.599Z,72.16
2022-08-31T00:35:28.215Z,72.44
2022-08-31T00:37:55.241Z,72.75
2022-08-31T00:40:23.132Z,72.84
2022-08-31T00:42:50.139Z,72.57
2022-08-31T00:45:17.083Z,71.84
2022-08-31T00:47:44.354Z,71.28
2022-08-31T00:50:14.530Z,71.97
2022-08-31T00:52:46.988Z,71.95
2022-08-31T00:55:18.056Z,72.55
2022-08-31T00:57:48.225Z,72.26
2022-08-31T01:00:19.447Z,72.32
2022-08-31T01:02:47.402Z,72.38
2022-08-31T01:05:15.570Z,73.15
2022-08-31T01:07:44.123Z,73.22
2022-08-31T01:10:11.111Z,73.20
2022-08-31T01:12:38.497Z,72.96
2022-08-31T01:15:08.654Z,72.41
2022-08-31T01:17:36.714Z,72.68
2022-08-31T01:20:12.832Z,72.74
2022-08-31T01:23:04.710Z,72.49
2022-08-31T01:25:33.589Z,72.74
2022-08-31T01:28:04.744Z,71.60
2022-08-31T01:30:32.797Z,71.99
2022-08-31T01:33:00.278Z,72.74
2022-08-31T01:35:28.161Z,72.39
2022-08-31T01:37:57.128Z,72.65
2022-08-31T01:40:55.644Z,73.11
2022-08-31T01:43:23.521Z,73.18
2022-08-31T01:45:51.949Z,73.54
2022-08-31T01:48:21.727Z,73.48
2022-08-31T01:50:49.264Z,74.02
2022-08-31T01:53:16.795Z,74.16
2022-08-31T01:55:43.905Z,74.37
2022-08-31T01:58:11.099Z,74.60
2022-08-31T02:00:56.932Z,75.09
2022-08-31T02:03:24.276Z,75.18
2022-08-31T02:08:19.029Z,76.41
2022-08-31T02:10:46.639Z,76.90
2022-08-31T02:13:14.040Z,77.39
2022-08-31T02:15:41.108Z,77.58
2022-08-31T02:18:08.513Z,77.14
2022-08-31T02:20:39.252Z,77.94
2022-08-31T02:23:06.231Z,78.06
2022-08-31T02:25:33.411Z,78.63
2022-08-31T02:28:02.314Z,79.00
2022-08-31T02:30:29.333Z,79.24
2022-08-31T02:32:57.515Z,79.57
2022-08-31T02:35:24.567Z,79.01
2022-08-31T02:37:51.784Z,79.45
2022-08-31T02:40:18.779Z,79.62
2022-08-31T02:42:52.192Z,79.84
2022-08-31T02:45:24.602Z,79.92
2022-08-31T02:47:54.234Z,80.22
2022-08-31T02:50:28.345Z,80.03
2022-08-31T02:52:56.835Z,80.22
2022-08-31T02:55:25.627Z,80.38
2022-08-31T02:57:53.525Z,80.57
2022-08-31T03:00:22.926Z,80.89
2022-08-31T03:02:51.014Z,81.52
2022-08-31T03:05:20.981Z,81.88
2022-08-31T03:07:52.411Z,82.04
2022-08-31T03:10:22.958Z,82.27
2022-08-31T03:12:51.111Z,82.48
2022-08-31T03:15:19.579Z,82.51
2022-08-31T03:17:47.017Z,82.82
2022-08-31T03:20:15.746Z,83.11
2022-08-31T03:22:45.469Z,82.80
2022-08-31T03:25:14.084Z,82.09
2022-08-31T03:27:41.255Z,81.79
2022-08-31T03:30:11.695Z,81.70
2022-08-31T03:32:41.348Z,81.63
2022-08-31T03:35:08.958Z,82.00
2022-08-31T03:37:38.457Z,82.22
2022-08-31T03:40:06.345Z,81.92
2022-08-31T03:42:33.596Z,82.17
2022-08-31T03:45:01.235Z,82.68
2022-08-31T03:47:30.984Z,82.44
2022-08-31T03:49:58.154Z,82.51
2022-08-31T03:52:30.109Z,82.84
2022-08-31T03:55:02.345Z,83.04
2022-08-31T03:57:29.548Z,83.23
2022-08-31T04:00:00.627Z,84.67
2022-08-31T04:02:44.003Z,84.35
2022-08-31T04:05:31.566Z,84.15
2022-08-31T04:08:22.838Z,84.37
2022-08-31T04:11:14.072Z,85.53
2022-08-31T04:14:19.247Z,86.57
2022-08-31T04:17:11.095Z,87.57
2022-08-31T04:19:51.820Z,87.82
2022-08-31T04:22:40.503Z,88.34
2022-08-31T04:25:24.158Z,89.02
2022-08-31T04:27:51.055Z,89.89
2022-08-31T04:30:18.404Z,88.78
2022-08-31T04:32:45.291Z,88.53
2022-08-31T04:35:12.240Z,88.71
2022-08-31T04:37:46.353Z,88.96
2022-08-31T04:40:20.306Z,89.56
2022-08-31T04:42:52.962Z,89.68
2022-08-31T04:45:24.735Z,89.89
2022-08-31T04:47:52.602Z,90.80
2022-08-31T04:50:19.478Z,90.54
2022-08-31T04:53:07.562Z,90.89
2022-08-31T04:55:41.030Z,91.58
2022-08-31T04:58:09.772Z,91.96
2022-08-31T05:00:37.821Z,92.30
2022-08-31T05:03:23.570Z,92.81
2022-08-31T05:05:53.845Z,93.22
2022-08-31T05:08:20.960Z,93.38
2022-08-31T05:10:48.657Z,93.78
2022-08-31T05:13:15.783Z,93.72
2022-08-31T05:15:44.193Z,93.61
2022-08-31T05:18:14.850Z,93.93
2022-08-31T05:20:48.806Z,94.66
2022-08-31T05:23:15.753Z,94.57
2022-08-31T05:25:44.962Z,94.57
2022-08-31T05:28:12.628Z,94.66
2022-08-31T05:30:43.898Z,95.12
2022-08-31T05:33:21.859Z,95.57
2022-08-31T05:35:48.808Z,95.61
2022-08-31T05:38:15.650Z,96.01
2022-08-31T05:40:42.556Z,95.99
2022-08-31T05:43:10.045Z,95.78
2022-08-31T05:45:36.913Z,95.46
2022-08-31T05:48:05.097Z,95.74
2022-08-31T05:50:34.748Z,94.96
2022-08-31T05:53:03.062Z,94.53
2022-08-31T05:55:31.425Z,94.78
2022-08-31T05:57:58.666Z,94.71
2022-08-31T06:00:25.574Z,94.14
2022-08-31T06:03:04.106Z,93.66
2022-08-31T06:05:31.152Z,93.37
2022-08-31T06:07:58.903Z,93.46
2022-08-31T06:10:27.544Z,93.92
2022-08-31T06:12:54.382Z,94.24
2022-08-31T06:15:21.243Z,93.67
2022-08-31T06:17:48.585Z,93.77
2022-08-31T06:20:18.028Z,93.88
2022-08-31T06:22:46.783Z,93.69
2022-08-31T06:25:23.814Z,93.02
2022-08-31T06:27:51.855Z,92.45
2022-08-31T06:30:20.676Z,91.96
2022-08-31T06:32:48.465Z,91.01
2022-08-31T06:35:22.487Z,90.40
2022-08-31T06:38:01.348Z,89.65
2022-08-31T06:40:59.670Z,89.72
2022-08-31T06:43:47.180Z,89.21
2022-08-31T06:46:23.949Z,90.00
2022-08-31T06:49:10.392Z,90.10
2022-08-31T06:51:38.398Z,89.46
2022-08-31T06:54:27.850Z,88.14
2022-08-31T06:57:15.188Z,88.26
2022-08-31T07:00:12.179Z,87.87
2022-08-31T07:02:54.753Z,87.71
2022-08-31T07:05:25.710Z,87.71
2022-08-31T07:07:54.904Z,86.44
2022-08-31T07:10:21.974Z,85.73
2022-08-31T07:12:48.856Z,85.63
2022-08-31T07:15:16.558Z,85.44
2022-08-31T07:17:43.583Z,85.25
2022-08-31T07:20:11.554Z,84.08
2022-08-31T07:22:39.038Z,84.58
2022-08-31T07:25:26.832Z,84.65
2022-08-31T07:27:55.574Z,83.99
2022-08-31T07:30:23.158Z,83.86
2022-08-31T07:32:51.234Z,84.46
2022-08-31T07:35:24.487Z,85.43
2022-08-31T07:38:35.562Z,85.38
2022-08-31T07:41:28.135Z,82.86
2022-08-31T07:43:59.498Z,83.30
2022-08-31T07:46:30.349Z,83.92
2022-08-31T07:48:59.131Z,82.34
2022-08-31T07:51:46.496Z,82.22
2022-08-31T07:54:32.292Z,80.58
2022-08-31T07:57:18.931Z,79.41
2022-08-31T07:59:47.343Z,78.47
2022-08-31T08:02:17.412Z,78.25
2022-08-31T08:04:45.237Z,77.21
2022-08-31T08:07:33.958Z,75.42
2022-08-31T08:10:24.394Z,71.54
2022-08-31T08:13:06.324Z,69.61
2022-08-31T08:15:51.894Z,68.75
2022-08-31T08:18:38.237Z,68.25
2022-08-31T08:21:06.113Z,67.00
2022-08-31T08:23:33.316Z,64.68
2022-08-31T08:26:21.587Z,64.69
2022-08-31T08:29:09.330Z,64.22
2022-08-31T08:31:46.408Z,64.40
2022-08-31T08:34:13.378Z,62.67
2022-08-31T08:36:40.690Z,62.88
2022-08-31T08:39:09.970Z,62.26
2022-08-31T08:41:44.609Z,62.33
2022-08-31T08:44:18.108Z,61.81
2022-08-31T08:46:51.842Z,58.38
2022-08-31T08:49:31.281Z,58.86
2022-08-31T08:52:11.540Z,57.90
2022-08-31T08:54:47.192Z,57.05
2022-08-31T08:57:18.470Z,57.02
2022-08-31T08:59:49.617Z,56.95
2022-08-31T09:02:35.097Z,58.20
2022-08-31T09:05:06.368Z,58.10
2022-08-31T09:08:18.113Z,56.65
2022-08-31T09:11:20.566Z,55.89
2022-08-31T09:13:57.894Z,56.99
2022-08-31T09:16:33.540Z,55.75
2022-08-31T09:19:06.597Z,57.88
2022-08-31T09:21:44.270Z,57.90
2022-08-31T09:24:15.833Z,57.86
2022-08-31T09:27:18.839Z,57.41
2022-08-31T09:29:47.222Z,55.81
2022-08-31T09:32:26.246Z,54.76
2022-08-31T09:35:01.513Z,55.33
2022-08-31T09:37:46.380Z,54.32
2022-08-31T09:40:24.318Z,54.50
2022-08-31T09:43:13.942Z,54.14
2022-08-31T09:45:55.840Z,54.00
2022-08-31T09:48:59.524Z,50.87
2022-08-31T09:51:37.098Z,49.67
2022-08-31T09:54:46.652Z,49.89
2022-08-31T09:57:14.202Z,50.17
2022-08-31T09:59:48.163Z,49.84
2022-08-31T10:02:23.213Z,48.56
2022-08-31T10:04:59.322Z,48.62
2022-08-31T10:07:49.108Z,47.62
2022-08-31T10:10:31.724Z,48.23
2022-08-31T10:13:10.487Z,48.98
2022-08-31T10:15:48.513Z,47.35
2022-08-31T10:18:22.474Z,47.07
2022-08-31T10:20:57.022Z,46.79
2022-08-31T10:23:34.969Z,47.87
2022-08-31T10:26:13.139Z,46.78
2022-08-31T10:28:50.997Z,46.51
2022-08-31T10:31:24.127Z,47.02
2022-08-31T10:34:18.992Z,46.61
2022-08-31T10:36:50.764Z,46.26
2022-08-31T10:39:36.410Z,45.20
2022-08-31T10:42:07.245Z,44.03
2022-08-31T10:44:57.078Z,44.74
2022-08-31T10:47:34.050Z,43.02
2022-08-31T10:50:03.651Z,42.89
2022-08-31T10:52:46.224Z,44.05
2022-08-31T10:55:48.815Z,44.73
2022-08-31T10:58:31.362Z,44.16
2022-08-31T11:01:17.446Z,43.79
2022-08-31T11:04:14.944Z,45.41
2022-08-31T11:07:06.796Z,43.96
2022-08-31T11:10:12.600Z,43.82
2022-08-31T11:12:46.620Z,46.47
2022-08-31T11:15:55.406Z,47.58
2022-08-31T11:18:40.339Z,48.20
2022-08-31T11:21:35.875Z,47.60
2022-08-31T11:24:21.696Z,47.98
2022-08-31T11:27:03.440Z,48.97
2022-08-31T11:29:46.482Z,48.95
2022-08-31T11:32:25.001Z,48.93
2022-08-31T11:34:55.386Z,48.81
2022-08-31T11:37:52.426Z,49.18
2022-08-31T11:40:44.924Z,49.01
2022-08-31T11:43:35.473Z,48.46
2022-08-31T11:46:26.524Z,46.34
2022-08-31T11:48:54.672Z,47.46
2022-08-31T11:51:45.059Z,47.52
2022-08-31T11:54:26.470Z,47.58
2022-08-31T11:56:56.792Z,46.96
2022-08-31T11:59:34.289Z,47.62
2022-08-31T12:02:21.779Z,47.63
2022-08-31T12:04:52.320Z,47.18
2022-08-31T12:07:26.653Z,47.81
2022-08-31T12:09:59.859Z,48.73
2022-08-31T12:12:32.575Z,48.37
2022-08-31T12:14:59.516Z,49.03
2022-08-31T12:17:36.837Z,49.08
2022-08-31T12:20:23.924Z,48.64
2022-08-31T12:23:38.099Z,49.91
2022-08-31T12:26:45.390Z,49.74
2022-08-31T12:29:26.203Z,50.55
2022-08-31T12:32:14.331Z,49.82
2022-08-31T12:34:48.868Z,49.44
2022-08-31T12:37:24.535Z,49.07
2022-08-31T12:40:10.441Z,49.33
2022-08-31T12:42:54.177Z,48.82
2022-08-31T12:45:48.397Z,49.02
2022-08-31T12:48:24.561Z,48.86
2022-08-31T12:51:25.778Z,48.80
2022-08-31T12:54:08.317Z,48.19
2022-08-31T12:56:56.311Z,47.90
2022-08-31T13:00:00.137Z,47.60
2022-08-31T13:02:33.060Z,47.22
2022-08-31T13:05:01.910Z,47.19
2022-08-31T13:07:31.969Z,46.24
2022-08-31T13:10:21.928Z,45.69
2022-08-31T13:12:53.964Z,46.73
2022-08-31T13:15:43.019Z,45.91
2022-08-31T13:18:16.643Z,46.16
2022-08-31T13:20:44.944Z,46.46
2022-08-31T13:23:15.309Z,46.06
2022-08-31T13:25:42.712Z,45.63
2022-08-31T13:28:15.511Z,45.47
2022-08-31T13:30:53.691Z,45.47
2022-08-31T13:33:27.302Z,45.41
2022-08-31T13:36:09.755Z,45.56
2022-08-31T13:38:47.083Z,45.65
2022-08-31T13:41:30.281Z,45.75
2022-08-31T13:44:01.517Z,45.81
2022-08-31T13:46:43.184Z,44.75
2022-08-31T13:49:31.140Z,45.06
2022-08-31T13:51:58.996Z,45.57
2022-08-31T13:54:32.396Z,45.79
2022-08-31T13:57:19.794Z,45.53
2022-08-31T13:59:47.841Z,45.75
2022-08-31T14:02:15.600Z,47.11
2022-08-31T14:04:48.769Z,47.77
2022-08-31T14:07:21.741Z,47.68
2022-08-31T14:10:12.252Z,47.37
2022-08-31T14:12:46.463Z,47.70
2022-08-31T14:15:17.721Z,48.88
2022-08-31T14:21:23.502Z,48.07
2022-08-31T14:23:53.387Z,48.15
2022-08-31T14:26:28.264Z,49.04
2022-08-31T14:29:00.358Z,49.89
2022-08-31T14:31:55.298Z,50.60
2022-08-31T14:34:30.428Z,50.56
2022-08-31T14:37:02.640Z,50.44
2022-08-31T14:39:47.287Z,51.13
2022-08-31T14:42:25.691Z,50.67
2022-08-31T14:44:57.889Z,50.72
2022-08-31T14:47:30.547Z,50.88
2022-08-31T14:49:59.725Z,51.46
2022-08-31T14:52:28.554Z,51.38
2022-08-31T14:55:00.720Z,52.05
2022-08-31T14:57:27.965Z,51.36
2022-08-31T14:59:57.852Z,50.92
2022-08-31T15:02:26.787Z,50.38
2022-08-31T15:04:59.738Z,50.32
2022-08-31T15:07:32.360Z,50.66
2022-08-31T15:09:59.650Z,49.93
2022-08-31T15:12:27.196Z,48.91
2022-08-31T15:15:00.059Z,49.03
2022-08-31T15:17:33.990Z,48.34
2022-08-31T15:20:03.412Z,49.02
2022-08-31T15:22:31.383Z,49.08
2022-08-31T15:24:58.999Z,49.39
2022-08-31T15:27:29.014Z,49.54
2022-08-31T15:29:57.251Z,49.17
2022-08-31T15:32:24.337Z,50.66
2022-08-31T15:34:58.182Z,51.19
2022-08-31T15:37:31.894Z,51.30
2022-08-31T15:40:02.077Z,51.74
2022-08-31T15:42:31.662Z,51.59
2022-08-31T15:44:59.023Z,52.97
2022-08-31T15:47:50.329Z,52.48
2022-08-31T15:50:19.633Z,51.81
2022-08-31T15:52:51.076Z,51.93
2022-08-31T15:55:23.674Z,52.63
2022-08-31T15:57:54.367Z,52.69
2022-08-31T16:00:26.727Z,52.10
2022-08-31T16:02:57.537Z,52.63
2022-08-31T16:05:28.548Z,52.97
2022-08-31T16:07:57.366Z,53.30
2022-08-31T16:10:27.591Z,53.68
2022-08-31T16:12:54.549Z,54.31
2022-08-31T16:15:24.713Z,54.14
2022-08-31T16:17:52.053Z,54.26
2022-08-31T16:20:19.592Z,54.61
2022-08-31T16:22:46.770Z,55.06
2022-08-31T16:25:14.788Z,56.01
2022-08-31T16:27:43.485Z,57.22
2022-08-31T16:30:12.169Z,57.32
2022-08-31T16:32:39.012Z,56.65
2022-08-31T16:35:06.912Z,56.21
2022-08-31T16:37:34.135Z,56.67
2022-08-31T16:40:00.992Z,56.98
2022-08-31T16:42:28.349Z,57.65
2022-08-31T16:44:59.748Z,58.45
2022-08-31T16:47:29.325Z,59.92
2022-08-31T16:49:58.432Z,60.33
2022-08-31T16:52:30.908Z,61.64
2022-08-31T16:54:57.953Z,62.14
2022-08-31T16:57:28.476Z,61.81
2022-08-31T16:59:59.400Z,62.31
2022-08-31T17:02:27.131Z,62.67
2022-08-31T17:04:54.796Z,63.02
2022-08-31T17:07:24.386Z,63.81
2022-08-31T17:09:56.754Z,63.85
2022-08-31T17:12:26.300Z,63.87
2022-08-31T17:14:53.736Z,63.99
2022-08-31T17:17:26.124Z,64.57
2022-08-31T17:19:55.782Z,65.23
2022-08-31T17:22:31.739Z,66.27
2022-08-31T17:25:04.874Z,67.38
2022-08-31T17:27:34.229Z,67.62
2022-08-31T17:30:05.598Z,68.35
2022-08-31T17:32:34.994Z,69.21
2022-08-31T17:35:03.867Z,69.22
2022-08-31T17:37:36.718Z,69.60
2022-08-31T17:40:08.261Z,69.89
2022-08-31T17:42:36.031Z,70.35
2022-08-31T17:45:06.087Z,70.68
2022-08-31T17:47:33.620Z,70.68
2022-08-31T17:50:00.947Z,71.40
2022-08-31T17:52:28.447Z,72.08
2022-08-31T17:54:55.403Z,72.48
2022-08-31T17:57:25.210Z,72.72
2022-08-31T17:59:53.466Z,73.51
2022-08-31T18:02:27.719Z,73.91
2022-08-31T18:04:55.046Z,74.38
2022-08-31T18:07:22.458Z,75.14
2022-08-31T18:09:49.285Z,75.46
2022-08-31T18:12:18.350Z,76.02
2022-08-31T18:14:45.320Z,76.57
2022-08-31T18:17:16.216Z,76.89
2022-08-31T18:19:45.199Z,76.73
2022-08-31T18:22:14.250Z,77.16
2022-08-31T18:24:42.480Z,77.53
2022-08-31T18:27:11.602Z,77.71
2022-08-31T18:29:39.534Z,77.76
2022-08-31T18:32:08.119Z,78.20
2022-08-31T18:34:40.667Z,78.77
2022-08-31T18:37:09.302Z,79.06
2022-08-31T18:39:59.622Z,79.51
2022-08-31T18:42:46.901Z,79.57
2022-08-31T18:45:18.795Z,80.35
2022-08-31T18:48:20.856Z,80.57
2022-08-31T18:50:42.561Z,80.88
2022-08-31T18:53:11.008Z,81.06
2022-08-31T18:55:42.777Z,81.76
2022-08-31T18:58:09.794Z,81.96
2022-08-31T19:00:37.553Z,81.40
2022-08-31T19:03:04.834Z,81.86
2022-08-31T19:05:32.769Z,82.40
2022-08-31T19:08:00.621Z,82.69
2022-08-31T19:10:28.603Z,82.91
2022-08-31T19:12:55.932Z,82.75
2022-08-31T19:15:25.518Z,83.30
2022-08-31T19:18:02.939Z,83.34
2022-08-31T19:20:30.195Z,83.83
2022-08-31T19:22:57.339Z,84.46
2022-08-31T19:25:24.722Z,85.08
2022-08-31T19:27:52.697Z,84.60
2022-08-31T19:30:23.286Z,85.29
2022-08-31T19:32:54.458Z,85.58
2022-08-31T19:35:21.512Z,86.02
2022-08-31T19:37:51.796Z,86.29
2022-08-31T19:40:19.701Z,86.20
2022-08-31T19:43:42.947Z,86.60
2022-08-31T19:45:44.977Z,86.79
2022-08-31T19:48:12.950Z,86.62
2022-08-31T19:50:41.788Z,87.04
2022-08-31T19:53:13.517Z,87.43
2022-08-31T19:55:50.344Z,87.45
2022-08-31T19:58:19.655Z,88.32
2022-08-31T20:00:48.339Z,88.43
2022-08-31T20:03:16.433Z,88.50
2022-08-31T20:05:43.552Z,89.11
2022-08-31T20:08:11.833Z,89.87
2022-08-31T20:10:46.447Z,90.39
2022-08-31T20:13:13.542Z,90.70
2022-08-31T20:15:43.191Z,90.88
2022-08-31T20:18:12.148Z,90.92
2022-08-31T20:20:48.459Z,91.16
2022-08-31T20:23:18.077Z,91.29
2022-08-31T20:25:49.276Z,91.65
2022-08-31T20:28:16.975Z,92.87
2022-08-31T20:30:44.296Z,93.09
2022-08-31T20:33:11.842Z,93.48
2022-08-31T20:35:47.769Z,93.37
2022-08-31T20:38:17.087Z,94.48
2022-08-31T20:40:47.469Z,94.43
2022-08-31T20:43:15.170Z,94.68
2022-08-31T20:45:42.407Z,94.75
2022-08-31T20:48:29.376Z,94.97
2022-08-31T20:50:57.079Z,95.02
2022-08-31T20:53:26.369Z,95.61
2022-08-31T20:56:17.543Z,96.17
2022-08-31T20:58:48.417Z,96.57
2022-08-31T21:01:16.235Z,96.86
2022-08-31T21:03:43.434Z,96.63
2022-08-31T21:06:13.970Z,96.48
2022-08-31T21:08:42.604Z,97.01
2022-08-31T21:11:22.338Z,97.26
2022-08-31T21:13:50.483Z,98.13
2022-08-31T21:16:19.521Z,98.75
2022-08-31T21:18:49.767Z,99.35
2022-08-31T21:21:17.654Z,98.83
2022-08-31T21:23:46.171Z,98.86
2022-08-31T21:26:20.049Z,99.15
2022-08-31T21:28:52.441Z,99.15
2022-08-31T21:31:27.596Z,99.41
2022-08-31T21:34:01.839Z,100.00
2022-08-31T21:36:33.010Z,100.00
2022-08-31T21:39:00.825Z,100.00
2022-08-31T21:41:29.180Z,100.00
2022-08-31T21:43:59.174Z,100.00
2022-08-31T21:46:28.862Z,100.00
2022-08-31T21:48:58.497Z,100.00
2022-08-31T21:51:28.801Z,100.00
2022-08-31T21:53:59.647Z,100.00
2022-08-31T21:56:30.210Z,100.00
2022-08-31T21:58:58.283Z,100.00
2022-08-31T22:01:29.695Z,100.00
2022-08-31T22:03:59.180Z,100.00
2022-08-31T22:06:31.238Z,100.00
2022-08-31T22:09:01.679Z,100.00
2022-08-31T22:11:31.403Z,100.00
2022-08-31T22:13:59.627Z,100.00
2022-08-31T22:16:27.801Z,100.00
2022-08-31T22:19:02.160Z,100.00
2022-08-31T22:21:34.491Z,100.00
2022-08-31T22:24:06.265Z,100.00
2022-08-31T22:26:38.493Z,100.00
2022-08-31T22:29:07.771Z,100.00
2022-08-31T22:31:37.398Z,100.00
2022-08-31T22:34:07.319Z,100.00
2022-08-31T22:36:34.815Z,100.00
2022-08-31T22:39:11.527Z,100.00
2022-08-31T22:41:42.185Z,100.00
2022-08-31T22:44:12.214Z,100.00
2022-08-31T22:46:39.989Z,100.00
2022-08-31T22:49:07.801Z,100.00
2022-08-31T22:51:36.685Z,100.00
2022-08-31T22:54:04.637Z,100.00
2022-08-31T22:56:33.650Z,100.00
2022-08-31T22:59:03.907Z,100.00
2022-08-31T23:01:37.649Z,100.00
2022-08-31T23:04:07.122Z,100.00
2022-08-31T23:06:36.736Z,100.00
2022-08-31T23:09:05.983Z,100.00
2022-08-31T23:11:33.260Z,100.00
2022-08-31T23:14:05.340Z,100.00
2022-08-31T23:16:37.698Z,100.00
2022-08-31T23:19:16.801Z,100.00
2022-08-31T23:21:56.821Z,100.00
2022-08-31T23:24:51.341Z,100.00
2022-08-31T23:27:21.561Z,100.00
2022-08-31T23:29:51.757Z,100.00
2022-08-31T23:32:20.961Z,100.00
2022-08-31T23:34:50.739Z,100.00
2022-08-31T23:37:18.773Z,100.00
2022-08-31T23:39:46.581Z,100.00
2022-08-31T23:42:16.629Z,100.00
2022-08-31T23:44:45.787Z,100.00
2022-08-31T23:47:25.863Z,100.00
2022-08-31T23:49:53.558Z,100.00
2022-08-31T23:52:23.850Z,100.00
2022-08-31T23:54:54.147Z,100.00
2022-08-31T23:57:32.521Z,100.00
